Terminal Aerodrome Forecast
Issued by NWS

Current Version | Previous Version | Text Only | Print | Product List | Glossary On
Versions: 1 2 3 4 5 6 7 8 9 10 11 12 13 14 15 16 17 18 19 20 21 22 23 24 25 26 27 28 29 30 31 32 33 34 35 36 37 38
000
FTUS43 KGRB 192300
TAFRHI
TAF
KRHI 192323Z 2000/2024 19003KT P6SM SCT015 BKN080
      TEMPO 2001/2003 BKN015
     FM200300 20003KT 6SM BR OVC010
     FM200900 19003KT 2SM BR OVC005
      TEMPO 2010/2014 1/2SM FG OVC002
     FM201400 16005KT 4SM BR OVC007=

USA.gov is the U.S. government's official web portal to all federal, state and local government web resources and services.